createdAt,value
2022-08-16T00:02:52.342Z,61.45
2022-08-16T00:07:56.518Z,62.22
2022-08-16T00:13:01.615Z,63.35
2022-08-16T00:18:05.854Z,62.40
2022-08-16T00:23:14.062Z,62.57
2022-08-16T00:28:18.736Z,62.45
2022-08-16T00:33:21.472Z,62.86
2022-08-16T00:38:40.961Z,61.42
2022-08-16T00:43:47.216Z,61.61
2022-08-16T00:48:51.840Z,61.35
2022-08-16T00:53:55.810Z,62.11
2022-08-16T00:59:01.269Z,62.19
2022-08-16T01:04:29.013Z,62.44
2022-08-16T01:09:34.082Z,62.89
2022-08-16T01:14:47.162Z,64.28
2022-08-16T01:19:56.916Z,63.71
2022-08-16T01:25:06.857Z,63.16
2022-08-16T01:30:19.533Z,62.84
2022-08-16T01:35:35.343Z,62.21
2022-08-16T01:40:39.433Z,62.71
2022-08-16T01:45:43.413Z,61.52
2022-08-16T01:51:08.981Z,61.99
2022-08-16T01:56:24.547Z,61.47
2022-08-16T02:01:30.119Z,62.46
2022-08-16T02:06:38.008Z,62.25
2022-08-16T02:11:48.135Z,62.36
2022-08-16T02:16:57.741Z,62.59
2022-08-16T02:22:08.208Z,63.06
2022-08-16T02:27:13.064Z,63.57
2022-08-16T02:32:49.932Z,62.23
2022-08-16T02:37:52.854Z,62.40
2022-08-16T02:42:56.482Z,62.89
2022-08-16T02:48:29.709Z,63.05
2022-08-16T02:53:23.340Z,62.70
2022-08-16T02:58:26.902Z,62.73
2022-08-16T03:04:41.262Z,62.85
2022-08-16T03:08:54.213Z,63.25
2022-08-16T03:13:57.056Z,63.40
2022-08-16T03:19:02.303Z,64.13
2022-08-16T03:24:28.377Z,64.29
2022-08-16T03:29:33.907Z,64.69
2022-08-16T03:34:36.674Z,64.63
2022-08-16T03:39:42.838Z,63.70
2022-08-16T03:44:49.335Z,62.63
2022-08-16T03:49:53.732Z,61.83
2022-08-16T03:54:59.476Z,61.21
2022-08-16T04:00:36.314Z,61.81
2022-08-16T04:05:44.348Z,62.47
2022-08-16T04:10:51.829Z,62.77
2022-08-16T04:15:55.684Z,62.35
2022-08-16T04:20:58.426Z,62.54
2022-08-16T04:26:02.372Z,62.76
2022-08-16T04:31:07.273Z,62.69
2022-08-16T04:36:19.917Z,61.93
2022-08-16T04:41:32.845Z,61.83
2022-08-16T04:47:01.128Z,61.69
2022-08-16T04:52:04.818Z,59.87
2022-08-16T04:57:30.179Z,60.28
2022-08-16T05:02:41.709Z,60.80
2022-08-16T05:07:58.357Z,61.37
2022-08-16T05:13:05.024Z,61.35
2022-08-16T05:18:15.835Z,61.44
2022-08-16T05:23:19.440Z,61.93
2022-08-16T05:28:31.077Z,61.89
2022-08-16T05:33:42.142Z,62.32
2022-08-16T05:38:45.163Z,62.74
2022-08-16T05:43:49.278Z,62.98
2022-08-16T05:48:54.623Z,62.92
2022-08-16T05:53:58.180Z,61.90
2022-08-16T05:59:00.925Z,61.34
2022-08-16T06:04:05.002Z,60.79
2022-08-16T06:09:17.866Z,60.37
2022-08-16T06:14:20.882Z,59.81
2022-08-16T06:19:24.249Z,59.27
2022-08-16T06:24:55.195Z,61.96
2022-08-16T06:29:50.423Z,62.39
2022-08-16T06:34:55.402Z,60.88
2022-08-16T06:40:00.595Z,59.78
2022-08-16T06:45:04.163Z,62.81
2022-08-16T06:50:07.907Z,62.22
2022-08-16T06:55:12.814Z,59.27
2022-08-16T07:00:24.502Z,60.91
2022-08-16T07:05:41.465Z,62.85
2022-08-16T07:10:44.908Z,59.91
2022-08-16T07:15:51.151Z,59.62
2022-08-16T07:21:01.785Z,62.45
2022-08-16T07:26:08.055Z,60.81
2022-08-16T07:31:13.163Z,58.10
2022-08-16T07:36:21.774Z,59.31
2022-08-16T07:41:25.168Z,59.80
2022-08-16T07:46:39.079Z,58.84
2022-08-16T07:51:43.013Z,57.83
2022-08-16T07:56:45.878Z,57.05
2022-08-16T08:01:48.689Z,56.18
2022-08-16T08:06:56.150Z,55.00
2022-08-16T08:12:00.717Z,54.07
2022-08-16T08:17:08.548Z,53.94
2022-08-16T08:22:19.308Z,53.90
2022-08-16T08:27:25.118Z,53.26
2022-08-16T08:32:57.881Z,52.63
2022-08-16T08:37:54.204Z,50.48
2022-08-16T08:43:12.040Z,50.58
2022-08-16T08:48:33.899Z,49.13
2022-08-16T08:53:38.780Z,49.88
2022-08-16T08:58:53.877Z,49.84
2022-08-16T09:03:58.083Z,48.73
2022-08-16T09:09:01.048Z,46.41
2022-08-16T09:14:05.915Z,45.19
2022-08-16T09:24:46.647Z,39.54
2022-08-16T09:29:45.574Z,36.75
2022-08-16T09:34:48.565Z,30.75
2022-08-16T09:39:52.387Z,28.34
2022-08-16T09:45:12.161Z,30.09
2022-08-16T09:50:22.948Z,28.80
2022-08-16T09:55:26.248Z,28.40
2022-08-16T10:00:43.993Z,27.07
2022-08-16T10:05:48.955Z,25.44
2022-08-16T10:11:10.523Z,24.30
2022-08-16T10:21:17.580Z,22.77
2022-08-16T10:27:19.839Z,23.12
2022-08-16T10:31:53.787Z,23.18
2022-08-16T10:36:57.048Z,24.49
2022-08-16T10:42:00.398Z,25.98
2022-08-16T10:47:04.637Z,27.20
2022-08-16T10:52:18.739Z,27.94
2022-08-16T10:57:24.641Z,28.79
2022-08-16T11:02:59.863Z,28.83
2022-08-16T11:07:53.939Z,27.79
2022-08-16T11:12:57.313Z,26.55
2022-08-16T11:23:23.793Z,23.51
2022-08-16T11:33:52.873Z,22.71
2022-08-16T11:38:58.828Z,21.38
2022-08-16T11:44:01.883Z,20.93
2022-08-16T11:49:11.256Z,19.92
2022-08-16T11:54:20.682Z,19.85
2022-08-16T11:59:25.491Z,19.54
2022-08-16T12:04:34.022Z,20.31
2022-08-16T12:09:43.069Z,20.83
2022-08-16T12:14:46.266Z,21.34
2022-08-16T12:19:49.354Z,21.98
2022-08-16T12:24:54.017Z,22.25
2022-08-16T12:29:58.394Z,21.90
2022-08-16T12:35:03.091Z,22.47
2022-08-16T12:40:23.929Z,22.00
2022-08-16T12:45:33.224Z,22.40
2022-08-16T12:50:39.083Z,21.51
2022-08-16T12:55:45.036Z,21.87
2022-08-16T13:00:48.865Z,22.53
2022-08-16T13:05:53.344Z,21.82
2022-08-16T13:10:59.926Z,21.27
2022-08-16T13:16:15.522Z,21.40
2022-08-16T13:21:24.162Z,20.51
2022-08-16T13:26:27.157Z,20.69
2022-08-16T13:31:30.365Z,21.03
2022-08-16T13:36:49.798Z,21.81
2022-08-16T13:41:53.724Z,22.40
2022-08-16T13:46:58.123Z,22.45
2022-08-16T13:52:01.304Z,22.87
2022-08-16T13:57:06.179Z,22.94
2022-08-16T14:02:11.294Z,23.86
2022-08-16T14:07:20.015Z,24.48
2022-08-16T14:12:30.440Z,24.95
2022-08-16T14:18:01.725Z,24.73
2022-08-16T14:22:56.317Z,25.14
2022-08-16T14:27:59.081Z,26.15
2022-08-16T14:33:05.028Z,26.56
2022-08-16T14:38:09.444Z,26.73
2022-08-16T14:43:20.755Z,27.02
2022-08-16T14:48:25.815Z,27.09
2022-08-16T14:53:31.270Z,27.32
2022-08-16T14:58:36.789Z,27.14
2022-08-16T15:03:44.502Z,26.35
2022-08-16T15:08:47.952Z,25.91
2022-08-16T15:13:51.658Z,26.06
2022-08-16T15:18:54.853Z,27.69
2022-08-16T15:24:00.275Z,30.04
2022-08-16T15:29:04.165Z,32.02
2022-08-16T15:34:18.995Z,32.75
2022-08-16T15:39:35.628Z,33.94
2022-08-16T15:44:52.872Z,35.59
2022-08-16T15:49:56.341Z,36.50
2022-08-16T15:55:13.249Z,37.75
2022-08-16T16:00:27.632Z,38.35
2022-08-16T16:05:30.423Z,38.33
2022-08-16T16:10:37.615Z,38.77
2022-08-16T16:15:45.695Z,38.91
2022-08-16T16:20:52.041Z,39.07
2022-08-16T16:25:56.025Z,39.11
2022-08-16T16:31:01.460Z,39.43
2022-08-16T16:36:05.720Z,39.79
2022-08-16T16:41:10.201Z,40.27
2022-08-16T16:46:39.216Z,40.48
2022-08-16T16:51:40.790Z,40.51
2022-08-16T16:56:49.682Z,41.21
2022-08-16T17:01:59.762Z,41.34
2022-08-16T17:07:16.769Z,42.44
2022-08-16T17:12:24.925Z,42.81
2022-08-16T17:17:59.323Z,43.15
2022-08-16T17:23:05.129Z,43.94
2022-08-16T17:28:58.402Z,43.97
2022-08-16T17:33:36.673Z,44.22
2022-08-16T17:38:43.971Z,44.27
2022-08-16T17:43:48.754Z,44.36
2022-08-16T17:48:51.680Z,45.27
2022-08-16T17:53:55.092Z,45.58
2022-08-16T17:58:57.772Z,46.28
2022-08-16T18:04:09.082Z,46.39
2022-08-16T18:09:14.911Z,46.33
2022-08-16T18:14:19.006Z,46.24
2022-08-16T18:19:41.719Z,46.13
2022-08-16T18:24:49.523Z,46.63
2022-08-16T18:29:52.562Z,46.96
2022-08-16T18:34:55.323Z,47.62
2022-08-16T18:39:58.485Z,48.97
2022-08-16T18:45:02.678Z,48.41
2022-08-16T18:50:06.448Z,48.28
2022-08-16T18:55:14.574Z,48.80
2022-08-16T19:00:21.480Z,49.48
2022-08-16T19:05:26.840Z,50.87
2022-08-16T19:10:31.411Z,50.05
2022-08-16T19:15:34.419Z,50.85
2022-08-16T19:20:37.906Z,51.74
2022-08-16T19:25:47.654Z,52.28
2022-08-16T19:30:53.067Z,52.24
2022-08-16T19:35:55.859Z,53.07
2022-08-16T19:40:58.628Z,53.12
2022-08-16T19:46:01.596Z,52.54
2022-08-16T19:51:04.518Z,53.83
2022-08-16T19:56:08.139Z,53.25
2022-08-16T20:01:12.674Z,53.30
2022-08-16T20:06:34.923Z,53.80
2022-08-16T20:11:39.792Z,53.50
2022-08-16T20:16:42.528Z,53.79
2022-08-16T20:21:45.658Z,54.64
2022-08-16T20:26:48.630Z,54.56
2022-08-16T20:31:51.796Z,54.57
2022-08-16T20:36:54.539Z,54.62
2022-08-16T20:47:19.144Z,55.03
2022-08-16T20:52:24.433Z,55.43
2022-08-16T20:57:27.182Z,55.71
2022-08-16T21:02:30.012Z,55.99
2022-08-16T21:07:32.985Z,57.17
2022-08-16T21:12:37.745Z,57.26
2022-08-16T21:17:40.773Z,57.93
2022-08-16T21:22:55.446Z,56.78
2022-08-16T21:28:39.480Z,57.40
2022-08-16T21:33:22.665Z,57.11
2022-08-16T21:38:30.116Z,57.65
2022-08-16T21:43:33.798Z,57.67
2022-08-16T21:48:40.686Z,57.79
2022-08-16T21:53:44.030Z,58.29
2022-08-16T21:58:52.690Z,58.84
2022-08-16T22:04:03.628Z,58.88
2022-08-16T22:09:19.475Z,58.96
2022-08-16T22:14:22.355Z,59.40
2022-08-16T22:19:25.370Z,59.71
2022-08-16T22:24:28.254Z,60.37
2022-08-16T22:29:31.322Z,67.26
2022-08-16T22:34:34.082Z,66.83
2022-08-16T22:39:36.911Z,63.05
2022-08-16T22:44:46.290Z,58.43
2022-08-16T22:49:49.341Z,56.54
2022-08-16T22:54:52.017Z,56.84
2022-08-16T22:59:54.846Z,59.38
2022-08-16T23:04:58.337Z,59.96
2022-08-16T23:10:01.680Z,60.71
2022-08-16T23:15:05.176Z,66.23
2022-08-16T23:20:09.675Z,65.41
2022-08-16T23:25:16.734Z,63.10
2022-08-16T23:30:21.737Z,59.63
2022-08-16T23:35:28.041Z,57.53
2022-08-16T23:40:49.523Z,58.23
2022-08-16T23:45:59.146Z,60.69
2022-08-16T23:51:09.170Z,68.02
2022-08-16T23:56:16.357Z,65.88
